sensor_id;sensor_type;location;lat;lon;timestamp;pressure;altitude;pressure_sealevel;temperature;humidity
48774;BME280;34576;0.000;0.000;2023-06-14T00:02:11;96125.91;;;20.24;33.71
48774;BME280;34576;0.000;0.000;2023-06-14T00:09:12;96122.81;;;20.31;33.63
48774;BME280;34576;0.000;0.000;2023-06-14T00:16:13;96122.06;;;20.16;33.98
48774;BME280;34576;0.000;0.000;2023-06-14T00:23:13;96126.13;;;20.14;33.81
48774;BME280;34576;0.000;0.000;2023-06-14T00:30:13;96123.22;;;20.02;34.16
48774;BME280;34576;0.000;0.000;2023-06-14T00:37:14;96120.16;;;19.94;34.23
48774;BME280;34576;0.000;0.000;2023-06-14T00:44:16;96125.69;;;19.98;34.47
48774;BME280;34576;0.000;0.000;2023-06-14T00:51:17;96120.16;;;19.94;34.45
48774;BME280;34576;0.000;0.000;2023-06-14T00:58:17;96121.78;;;19.81;34.42
48774;BME280;34576;0.000;0.000;2023-06-14T01:05:18;96125.13;;;19.87;34.35
48774;BME280;34576;0.000;0.000;2023-06-14T01:12:30;96123.44;;;19.77;34.49
48774;BME280;34576;0.000;0.000;2023-06-14T01:19:32;96118.19;;;19.72;34.26
48774;BME280;34576;0.000;0.000;2023-06-14T01:26:34;96112.56;;;19.74;34.32
48774;BME280;34576;0.000;0.000;2023-06-14T01:33:37;96118.72;;;19.60;34.40
48774;BME280;34576;0.000;0.000;2023-06-14T01:40:38;96118.25;;;19.58;34.50
48774;BME280;34576;0.000;0.000;2023-06-14T01:47:39;96114.09;;;19.52;34.65
48774;BME280;34576;0.000;0.000;2023-06-14T01:54:40;96113.22;;;19.43;34.61
48774;BME280;34576;0.000;0.000;2023-06-14T02:01:41;96116.78;;;19.38;34.45
48774;BME280;34576;0.000;0.000;2023-06-14T02:08:42;96112.91;;;19.44;34.18
48774;BME280;34576;0.000;0.000;2023-06-14T02:15:43;96124.38;;;19.45;34.22
48774;BME280;34576;0.000;0.000;2023-06-14T02:22:44;96127.25;;;19.35;34.62
48774;BME280;34576;0.000;0.000;2023-06-14T02:29:45;96119.47;;;19.38;34.45
48774;BME280;34576;0.000;0.000;2023-06-14T02:36:45;96119.16;;;19.40;34.35
48774;BME280;34576;0.000;0.000;2023-06-14T02:43:47;96122.91;;;19.39;34.32
48774;BME280;34576;0.000;0.000;2023-06-14T02:50:48;96123.81;;;19.34;34.17
48774;BME280;34576;0.000;0.000;2023-06-14T02:57:48;96121.81;;;19.40;33.94
48774;BME280;34576;0.000;0.000;2023-06-14T03:04:50;96135.84;;;19.31;34.28
48774;BME280;34576;0.000;0.000;2023-06-14T03:11:52;96139.72;;;19.25;34.53
48774;BME280;34576;0.000;0.000;2023-06-14T03:18:53;96148.56;;;19.21;34.60
48774;BME280;34576;0.000;0.000;2023-06-14T03:25:53;96160.22;;;19.11;34.63
48774;BME280;34576;0.000;0.000;2023-06-14T03:32:54;96162.66;;;18.93;34.66
48774;BME280;34576;0.000;0.000;2023-06-14T03:39:57;96160.53;;;19.79;34.65
48774;BME280;34576;0.000;0.000;2023-06-14T03:46:59;96160.16;;;20.67;34.76
48774;BME280;34576;0.000;0.000;2023-06-14T03:54:01;96171.75;;;20.85;35.73
48774;BME280;34576;0.000;0.000;2023-06-14T04:01:01;96168.34;;;20.94;36.60
48774;BME280;34576;0.000;0.000;2023-06-14T04:08:05;96171.06;;;21.02;37.22
48774;BME280;34576;0.000;0.000;2023-06-14T04:15:09;96177.84;;;21.09;37.66
48774;BME280;34576;0.000;0.000;2023-06-14T04:22:09;96182.88;;;21.10;38.21
48774;BME280;34576;0.000;0.000;2023-06-14T04:29:11;96207.53;;;17.48;37.93
48774;BME280;34576;0.000;0.000;2023-06-14T04:36:16;96210.19;;;17.23;38.23
48774;BME280;34576;0.000;0.000;2023-06-14T04:43:18;96225.78;;;16.32;40.02
48774;BME280;34576;0.000;0.000;2023-06-14T04:50:25;96227.16;;;16.59;39.78
48774;BME280;34576;0.000;0.000;2023-06-14T04:57:26;96223.78;;;18.52;37.80
48774;BME280;34576;0.000;0.000;2023-06-14T05:04:29;96228.59;;;19.76;36.31
48774;BME280;34576;0.000;0.000;2023-06-14T05:11:31;96219.31;;;20.02;36.60
48774;BME280;34576;0.000;0.000;2023-06-14T05:18:33;96224.63;;;20.15;36.81
48774;BME280;34576;0.000;0.000;2023-06-14T05:25:37;96223.63;;;20.25;37.14
48774;BME280;34576;0.000;0.000;2023-06-14T05:32:37;96227.75;;;20.31;37.70
48774;BME280;34576;0.000;0.000;2023-06-14T05:39:38;96228.13;;;20.39;38.03
48774;BME280;34576;0.000;0.000;2023-06-14T05:46:38;96233.06;;;20.45;38.18
48774;BME280;34576;0.000;0.000;2023-06-14T05:53:40;96224.13;;;20.50;38.38
48774;BME280;34576;0.000;0.000;2023-06-14T06:00:40;96230.94;;;20.56;38.61
48774;BME280;34576;0.000;0.000;2023-06-14T06:07:41;96221.22;;;20.60;38.60
48774;BME280;34576;0.000;0.000;2023-06-14T06:14:41;96224.88;;;20.64;38.57
48774;BME280;34576;0.000;0.000;2023-06-14T06:21:42;96235.97;;;20.72;38.82
48774;BME280;34576;0.000;0.000;2023-06-14T06:28:42;96235.34;;;20.75;39.15
48774;BME280;34576;0.000;0.000;2023-06-14T06:35:42;96240.69;;;20.75;39.11
48774;BME280;34576;0.000;0.000;2023-06-14T06:42:43;96240.09;;;20.78;39.28
48774;BME280;34576;0.000;0.000;2023-06-14T06:49:46;96240.28;;;20.81;39.31
48774;BME280;34576;0.000;0.000;2023-06-14T06:56:46;96239.66;;;20.84;39.30
48774;BME280;34576;0.000;0.000;2023-06-14T07:03:47;96235.59;;;20.87;39.68
48774;BME280;34576;0.000;0.000;2023-06-14T07:10:47;96237.53;;;20.95;39.67
48774;BME280;34576;0.000;0.000;2023-06-14T07:17:48;96235.66;;;20.96;39.64
48774;BME280;34576;0.000;0.000;2023-06-14T07:24:48;96235.03;;;20.99;39.74
48774;BME280;34576;0.000;0.000;2023-06-14T07:31:48;96237.91;;;21.02;39.92
48774;BME280;34576;0.000;0.000;2023-06-14T07:38:48;96243.09;;;21.08;40.26
48774;BME280;34576;0.000;0.000;2023-06-14T07:45:49;96237.19;;;21.11;40.38
48774;BME280;34576;0.000;0.000;2023-06-14T07:52:49;96248.34;;;21.13;40.38
48774;BME280;34576;0.000;0.000;2023-06-14T07:59:50;96242.06;;;21.17;40.62
48774;BME280;34576;0.000;0.000;2023-06-14T08:06:50;96241.28;;;21.17;40.86
48774;BME280;34576;0.000;0.000;2023-06-14T08:13:50;96236.91;;;21.21;40.43
48774;BME280;34576;0.000;0.000;2023-06-14T08:20:51;96238.19;;;21.24;40.37
48774;BME280;34576;0.000;0.000;2023-06-14T08:27:52;96243.22;;;21.25;40.74
48774;BME280;34576;0.000;0.000;2023-06-14T08:34:52;96231.13;;;21.28;41.04
48774;BME280;34576;0.000;0.000;2023-06-14T08:41:53;96246.88;;;21.29;41.03
48774;BME280;34576;0.000;0.000;2023-06-14T08:48:54;96242.00;;;21.31;41.05
48774;BME280;34576;0.000;0.000;2023-06-14T08:55:56;96249.69;;;21.33;41.60
48774;BME280;34576;0.000;0.000;2023-06-14T09:02:57;96242.97;;;21.35;41.62
48774;BME280;34576;0.000;0.000;2023-06-14T09:10:07;96257.59;;;21.38;41.79
48774;BME280;34576;0.000;0.000;2023-06-14T09:17:08;96253.53;;;21.41;41.65
48774;BME280;34576;0.000;0.000;2023-06-14T09:24:12;96251.31;;;21.43;41.86
48774;BME280;34576;0.000;0.000;2023-06-14T09:31:17;96255.59;;;21.44;41.90
48774;BME280;34576;0.000;0.000;2023-06-14T09:38:17;96254.97;;;21.47;41.93
48774;BME280;34576;0.000;0.000;2023-06-14T09:45:18;96262.69;;;21.48;41.83
48774;BME280;34576;0.000;0.000;2023-06-14T09:52:21;96268.22;;;21.52;41.88
48774;BME280;34576;0.000;0.000;2023-06-14T09:59:25;96264.47;;;21.53;42.21
48774;BME280;34576;0.000;0.000;2023-06-14T10:06:29;96259.91;;;21.53;42.14
48774;BME280;34576;0.000;0.000;2023-06-14T10:13:31;96257.72;;;21.55;42.30
48774;BME280;34576;0.000;0.000;2023-06-14T10:27:33;96244.53;;;21.59;42.39
48774;BME280;34576;0.000;0.000;2023-06-14T10:34:38;96235.38;;;21.60;42.56
48774;BME280;34576;0.000;0.000;2023-06-14T10:41:39;96243.91;;;21.62;42.51
48774;BME280;34576;0.000;0.000;2023-06-14T10:48:42;96239.00;;;21.64;42.82
48774;BME280;34576;0.000;0.000;2023-06-14T10:55:44;96234.16;;;21.66;42.82
48774;BME280;34576;0.000;0.000;2023-06-14T11:10:10;96243.59;;;21.72;42.55
48774;BME280;34576;0.000;0.000;2023-06-14T11:17:16;96232.59;;;21.74;42.98
48774;BME280;34576;0.000;0.000;2023-06-14T11:24:17;96233.06;;;21.76;42.82
48774;BME280;34576;0.000;0.000;2023-06-14T11:31:18;96225.84;;;21.77;42.83
48774;BME280;34576;0.000;0.000;2023-06-14T11:38:20;96216.09;;;21.81;42.94
48774;BME280;34576;0.000;0.000;2023-06-14T11:45:20;96217.63;;;21.82;43.32
48774;BME280;34576;0.000;0.000;2023-06-14T11:52:20;96215.47;;;21.84;43.28
48774;BME280;34576;0.000;0.000;2023-06-14T11:59:21;96209.00;;;21.85;43.49
48774;BME280;34576;0.000;0.000;2023-06-14T12:06:28;96209.16;;;21.97;43.42
48774;BME280;34576;0.000;0.000;2023-06-14T12:13:29;96207.28;;;21.89;43.57
48774;BME280;34576;0.000;0.000;2023-06-14T12:20:30;96203.97;;;21.92;43.62
48774;BME280;34576;0.000;0.000;2023-06-14T12:27:31;96206.66;;;21.92;43.86
48774;BME280;34576;0.000;0.000;2023-06-14T12:34:31;96211.06;;;21.97;43.47
48774;BME280;34576;0.000;0.000;2023-06-14T12:41:31;96200.69;;;21.95;43.84
48774;BME280;34576;0.000;0.000;2023-06-14T12:48:33;96202.25;;;21.96;44.05
48774;BME280;34576;0.000;0.000;2023-06-14T12:55:34;96199.28;;;21.98;43.97
48774;BME280;34576;0.000;0.000;2023-06-14T13:02:34;96207.00;;;21.99;44.14
48774;BME280;34576;0.000;0.000;2023-06-14T13:09:35;96206.66;;;22.01;44.23
48774;BME280;34576;0.000;0.000;2023-06-14T13:16:35;96203.69;;;22.02;44.06
48774;BME280;34576;0.000;0.000;2023-06-14T13:23:36;96209.81;;;22.03;44.19
48774;BME280;34576;0.000;0.000;2023-06-14T13:30:36;96209.50;;;22.04;44.44
48774;BME280;34576;0.000;0.000;2023-06-14T13:37:37;96208.09;;;22.07;44.17
48774;BME280;34576;0.000;0.000;2023-06-14T13:44:37;96207.78;;;22.09;44.17
48774;BME280;34576;0.000;0.000;2023-06-14T13:51:37;96203.22;;;22.09;44.48
48774;BME280;34576;0.000;0.000;2023-06-14T13:58:37;96197.56;;;22.11;44.19
48774;BME280;34576;0.000;0.000;2023-06-14T14:05:38;96193.75;;;22.12;44.58
48774;BME280;34576;0.000;0.000;2023-06-14T14:12:38;96193.75;;;22.12;44.47
48774;BME280;34576;0.000;0.000;2023-06-14T14:19:39;96191.56;;;22.14;44.51
48774;BME280;34576;0.000;0.000;2023-06-14T14:26:40;96198.78;;;22.13;44.53
48774;BME280;34576;0.000;0.000;2023-06-14T14:33:40;96194.69;;;22.16;44.73
48774;BME280;34576;0.000;0.000;2023-06-14T14:40:41;96200.06;;;22.16;44.80
48774;BME280;34576;0.000;0.000;2023-06-14T14:47:41;96214.72;;;22.18;44.84
48774;BME280;34576;0.000;0.000;2023-06-14T14:54:41;96209.38;;;22.18;44.52
48774;BME280;34576;0.000;0.000;2023-06-14T15:01:42;96196.75;;;22.19;44.54
48774;BME280;34576;0.000;0.000;2023-06-14T15:08:42;96204.19;;;22.22;44.75
48774;BME280;34576;0.000;0.000;2023-06-14T15:15:42;96208.41;;;22.23;45.07
48774;BME280;34576;0.000;0.000;2023-06-14T15:22:42;96204.97;;;22.22;44.90
48774;BME280;34576;0.000;0.000;2023-06-14T15:29:43;96214.25;;;22.25;45.14
48774;BME280;34576;0.000;0.000;2023-06-14T15:36:44;96215.03;;;22.26;45.07
48774;BME280;34576;0.000;0.000;2023-06-14T15:43:44;96213.94;;;22.27;45.00
48774;BME280;34576;0.000;0.000;2023-06-14T15:50:45;96216.63;;;22.27;44.98
48774;BME280;34576;0.000;0.000;2023-06-14T15:57:46;96216.31;;;22.28;45.34
48774;BME280;34576;0.000;0.000;2023-06-14T16:04:46;96209.84;;;22.29;45.46
48774;BME280;34576;0.000;0.000;2023-06-14T16:11:46;96200.69;;;22.30;45.47
48774;BME280;34576;0.000;0.000;2023-06-14T16:18:47;96209.53;;;22.31;45.21
48774;BME280;34576;0.000;0.000;2023-06-14T16:25:47;96222.13;;;22.30;45.44
48774;BME280;34576;0.000;0.000;2023-06-14T16:32:47;96233.34;;;22.32;45.17
48774;BME280;34576;0.000;0.000;2023-06-14T16:39:48;96232.28;;;22.33;45.53
48774;BME280;34576;0.000;0.000;2023-06-14T16:46:48;96233.34;;;22.32;45.81
48774;BME280;34576;0.000;0.000;2023-06-14T16:53:48;96244.06;;;22.32;45.54
48774;BME280;34576;0.000;0.000;2023-06-14T17:00:49;96247.53;;;22.33;45.94
48774;BME280;34576;0.000;0.000;2023-06-14T17:07:49;96258.25;;;22.33;46.00
48774;BME280;34576;0.000;0.000;2023-06-14T17:14:49;96259.06;;;22.33;45.93
48774;BME280;34576;0.000;0.000;2023-06-14T17:21:49;96283.66;;;22.35;46.27
48774;BME280;34576;0.000;0.000;2023-06-14T17:28:52;96294.38;;;22.35;45.86
48774;BME280;34576;0.000;0.000;2023-06-14T17:35:52;96293.59;;;22.35;46.20
48774;BME280;34576;0.000;0.000;2023-06-14T17:42:52;96308.06;;;22.34;46.33
48774;BME280;34576;0.000;0.000;2023-06-14T17:49:52;96309.66;;;22.35;46.25
48774;BME280;34576;0.000;0.000;2023-06-14T17:56:53;96320.53;;;22.38;46.28
48774;BME280;34576;0.000;0.000;2023-06-14T18:03:54;96330.16;;;22.39;46.26
48774;BME280;34576;0.000;0.000;2023-06-14T18:10:54;96340.09;;;22.39;45.82
48774;BME280;34576;0.000;0.000;2023-06-14T18:17:55;96347.34;;;22.38;45.80
48774;BME280;34576;0.000;0.000;2023-06-14T18:24:55;96355.69;;;22.37;45.37
48774;BME280;34576;0.000;0.000;2023-06-14T18:31:55;96363.41;;;22.38;43.10
48774;BME280;34576;0.000;0.000;2023-06-14T18:38:56;96366.25;;;22.33;42.76
48774;BME280;34576;0.000;0.000;2023-06-14T18:46:00;96373.47;;;22.33;43.15
48774;BME280;34576;0.000;0.000;2023-06-14T18:53:00;96380.72;;;22.32;42.19
48774;BME280;34576;0.000;0.000;2023-06-14T19:00:00;96378.03;;;22.32;41.14
48774;BME280;34576;0.000;0.000;2023-06-14T19:07:03;96384.16;;;22.24;39.32
48774;BME280;34576;0.000;0.000;2023-06-14T19:14:05;96389.50;;;22.24;40.12
48774;BME280;34576;0.000;0.000;2023-06-14T19:21:05;96400.00;;;22.12;40.31
48774;BME280;34576;0.000;0.000;2023-06-14T19:28:06;96412.41;;;21.76;41.28
48774;BME280;34576;0.000;0.000;2023-06-14T19:35:06;96422.47;;;21.70;41.65
48774;BME280;34576;0.000;0.000;2023-06-14T19:42:07;96453.19;;;21.14;42.14
48774;BME280;34576;0.000;0.000;2023-06-14T19:49:08;96453.44;;;21.63;41.98
48774;BME280;34576;0.000;0.000;2023-06-14T19:56:08;96462.81;;;21.51;41.92
48774;BME280;34576;0.000;0.000;2023-06-14T20:03:08;96464.44;;;21.25;42.38
48774;BME280;34576;0.000;0.000;2023-06-14T20:10:10;96476.44;;;21.13;42.29
48774;BME280;34576;0.000;0.000;2023-06-14T20:17:10;96489.25;;;21.53;42.16
48774;BME280;34576;0.000;0.000;2023-06-14T20:24:11;96486.47;;;21.58;42.49
48774;BME280;34576;0.000;0.000;2023-06-14T20:31:13;96490.88;;;20.76;43.47
48774;BME280;34576;0.000;0.000;2023-06-14T20:38:15;96491.59;;;20.34;43.28
48774;BME280;34576;0.000;0.000;2023-06-14T20:45:15;96493.28;;;20.30;43.84
48774;BME280;34576;0.000;0.000;2023-06-14T20:52:15;96507.63;;;20.34;43.83
48774;BME280;34576;0.000;0.000;2023-06-14T20:59:16;96503.97;;;20.30;43.25
48774;BME280;34576;0.000;0.000;2023-06-14T21:06:17;96497.34;;;21.25;42.03
48774;BME280;34576;0.000;0.000;2023-06-14T21:13:18;96495.44;;;21.40;41.92
48774;BME280;34576;0.000;0.000;2023-06-14T21:20:18;96504.16;;;21.31;42.26
48774;BME280;34576;0.000;0.000;2023-06-14T21:27:18;96500.81;;;21.26;42.04
48774;BME280;34576;0.000;0.000;2023-06-14T21:34:18;96508.34;;;21.24;42.18
48774;BME280;34576;0.000;0.000;2023-06-14T21:41:19;96504.25;;;21.26;41.65
48774;BME280;34576;0.000;0.000;2023-06-14T21:48:19;96513.28;;;21.30;41.77
48774;BME280;34576;0.000;0.000;2023-06-14T21:55:19;96511.22;;;21.27;41.50
48774;BME280;34576;0.000;0.000;2023-06-14T22:02:23;96517.63;;;21.26;41.92
48774;BME280;34576;0.000;0.000;2023-06-14T22:09:23;96518.53;;;21.21;41.91
48774;BME280;34576;0.000;0.000;2023-06-14T22:16:26;96508.06;;;21.11;42.08
48774;BME280;34576;0.000;0.000;2023-06-14T22:23:27;96506.41;;;21.01;42.09
48774;BME280;34576;0.000;0.000;2023-06-14T22:30:36;96497.66;;;21.10;41.55
48774;BME280;34576;0.000;0.000;2023-06-14T22:37:36;96513.72;;;20.96;41.13
48774;BME280;34576;0.000;0.000;2023-06-14T22:44:37;96513.72;;;21.10;40.77
48774;BME280;34576;0.000;0.000;2023-06-14T22:51:39;96518.69;;;21.02;40.60
48774;BME280;34576;0.000;0.000;2023-06-14T22:58:40;96516.09;;;20.97;40.14
48774;BME280;34576;0.000;0.000;2023-06-14T23:05:41;96508.69;;;20.94;40.56
48774;BME280;34576;0.000;0.000;2023-06-14T23:12:41;96508.97;;;20.93;40.63
48774;BME280;34576;0.000;0.000;2023-06-14T23:19:42;96504.03;;;20.86;40.74
48774;BME280;34576;0.000;0.000;2023-06-14T23:26:43;96501.56;;;20.76;41.17
48774;BME280;34576;0.000;0.000;2023-06-14T23:33:45;96498.41;;;20.74;40.94
48774;BME280;34576;0.000;0.000;2023-06-14T23:40:46;96496.69;;;20.64;40.88
48774;BME280;34576;0.000;0.000;2023-06-14T23:47:49;96494.41;;;20.57;41.66
48774;BME280;34576;0.000;0.000;2023-06-14T23:54:49;96500.03;;;20.56;42.07
